sensor_id;sensor_type;location;lat;lon;timestamp;temperature;humidity
37240;DHT22;23130;48.760;9.178;2023-12-22T07:50:33;7.30;99.90
37240;DHT22;23130;48.760;9.178;2023-12-22T07:52:59;7.30;99.90
37240;DHT22;23130;48.760;9.178;2023-12-22T07:55:25;7.30;99.90
37240;DHT22;23130;48.760;9.178;2023-12-22T07:57:50;7.30;99.90
37240;DHT22;23130;48.760;9.178;2023-12-22T08:00:17;7.20;99.90
37240;DHT22;23130;48.760;9.178;2023-12-22T08:02:43;7.10;99.90
37240;DHT22;23130;48.760;9.178;2023-12-22T08:05:09;7.00;99.90
37240;DHT22;23130;48.760;9.178;2023-12-22T08:07:35;6.80;99.90
37240;DHT22;23130;48.760;9.178;2023-12-22T08:10:01;6.70;99.90
37240;DHT22;23130;48.760;9.178;2023-12-22T08:12:29;6.60;99.90
37240;DHT22;23130;48.760;9.178;2023-12-22T08:14:54;6.50;99.90
37240;DHT22;23130;48.760;9.178;2023-12-22T08:17:20;6.50;99.90
37240;DHT22;23130;48.760;9.178;2023-12-22T08:19:45;6.40;99.90
37240;DHT22;23130;48.760;9.178;2023-12-22T08:22:11;6.40;99.90
37240;DHT22;23130;48.760;9.178;2023-12-22T08:24:38;6.30;99.90
37240;DHT22;23130;48.760;9.178;2023-12-22T08:27:04;6.30;99.90
37240;DHT22;23130;48.760;9.178;2023-12-22T08:29:32;6.20;99.90
37240;DHT22;23130;48.760;9.178;2023-12-22T08:31:57;6.20;99.90
37240;DHT22;23130;48.760;9.178;2023-12-22T08:34:22;6.20;99.90
37240;DHT22;23130;48.760;9.178;2023-12-22T08:36:48;6.20;99.90
37240;DHT22;23130;48.760;9.178;2023-12-22T08:39:13;6.20;99.90
37240;DHT22;23130;48.760;9.178;2023-12-22T08:41:39;6.20;99.90
37240;DHT22;23130;48.760;9.178;2023-12-22T08:44:06;6.30;99.90
37240;DHT22;23130;48.760;9.178;2023-12-22T08:46:32;6.40;99.90
37240;DHT22;23130;48.760;9.178;2023-12-22T08:48:58;6.50;99.90
37240;DHT22;23130;48.760;9.178;2023-12-22T08:51:25;6.50;99.90
37240;DHT22;23130;48.760;9.178;2023-12-22T08:53:50;6.60;99.90
37240;DHT22;23130;48.760;9.178;2023-12-22T08:56:18;6.50;99.90
37240;DHT22;23130;48.760;9.178;2023-12-22T08:58:43;6.70;99.90
37240;DHT22;23130;48.760;9.178;2023-12-22T09:01:15;6.70;99.90
37240;DHT22;23130;48.760;9.178;2023-12-22T09:03:41;6.70;99.90
37240;DHT22;23130;48.760;9.178;2023-12-22T09:06:15;6.80;99.90
37240;DHT22;23130;48.760;9.178;2023-12-22T09:08:41;6.80;99.90
37240;DHT22;23130;48.760;9.178;2023-12-22T09:11:07;6.80;99.90
37240;DHT22;23130;48.760;9.178;2023-12-22T09:13:33;6.80;99.90
37240;DHT22;23130;48.760;9.178;2023-12-22T09:15:58;6.90;99.90
37240;DHT22;23130;48.760;9.178;2023-12-22T09:18:24;6.90;99.90
37240;DHT22;23130;48.760;9.178;2023-12-22T09:20:50;7.00;99.90
37240;DHT22;23130;48.760;9.178;2023-12-22T09:23:16;7.00;99.90
37240;DHT22;23130;48.760;9.178;2023-12-22T09:25:41;7.00;99.90
37240;DHT22;23130;48.760;9.178;2023-12-22T09:28:07;7.10;99.90
37240;DHT22;23130;48.760;9.178;2023-12-22T09:30:34;7.20;99.90
37240;DHT22;23130;48.760;9.178;2023-12-22T09:32:59;7.20;99.90
37240;DHT22;23130;48.760;9.178;2023-12-22T09:35:25;7.20;99.90
37240;DHT22;23130;48.760;9.178;2023-12-22T09:37:53;7.30;99.90
37240;DHT22;23130;48.760;9.178;2023-12-22T09:40:18;7.30;99.90
37240;DHT22;23130;48.760;9.178;2023-12-22T09:42:44;7.40;99.90
37240;DHT22;23130;48.760;9.178;2023-12-22T09:45:11;7.40;99.90
37240;DHT22;23130;48.760;9.178;2023-12-22T09:47:40;7.50;99.90
37240;DHT22;23130;48.760;9.178;2023-12-22T09:50:06;7.50;99.90
37240;DHT22;23130;48.760;9.178;2023-12-22T09:52:32;7.50;99.90
37240;DHT22;23130;48.760;9.178;2023-12-22T09:54:58;7.50;99.90
37240;DHT22;23130;48.760;9.178;2023-12-22T09:57:24;7.50;99.90
37240;DHT22;23130;48.760;9.178;2023-12-22T09:59:51;7.60;99.90
37240;DHT22;23130;48.760;9.178;2023-12-22T10:02:18;7.60;99.90
37240;DHT22;23130;48.760;9.178;2023-12-22T10:04:44;7.60;99.90
37240;DHT22;23130;48.760;9.178;2023-12-22T10:07:09;7.60;99.90
37240;DHT22;23130;48.760;9.178;2023-12-22T10:09:39;7.60;99.90
37240;DHT22;23130;48.760;9.178;2023-12-22T10:12:04;7.70;99.90
37240;DHT22;23130;48.760;9.178;2023-12-22T10:14:31;7.60;99.90
37240;DHT22;23130;48.760;9.178;2023-12-22T10:16:57;7.70;99.90
37240;DHT22;23130;48.760;9.178;2023-12-22T10:19:23;7.70;99.90
37240;DHT22;23130;48.760;9.178;2023-12-22T10:21:48;7.80;99.90
37240;DHT22;23130;48.760;9.178;2023-12-22T10:24:36;7.80;99.90
37240;DHT22;23130;48.760;9.178;2023-12-22T10:26:59;7.90;99.90
37240;DHT22;23130;48.760;9.178;2023-12-22T10:29:25;7.90;99.90
37240;DHT22;23130;48.760;9.178;2023-12-22T10:31:51;7.80;99.90
37240;DHT22;23130;48.760;9.178;2023-12-22T10:34:16;7.90;99.90
37240;DHT22;23130;48.760;9.178;2023-12-22T10:36:43;8.00;99.90
37240;DHT22;23130;48.760;9.178;2023-12-22T10:39:08;8.00;99.90
37240;DHT22;23130;48.760;9.178;2023-12-22T10:41:34;8.10;99.90
37240;DHT22;23130;48.760;9.178;2023-12-22T10:44:00;8.10;99.90
37240;DHT22;23130;48.760;9.178;2023-12-22T10:46:26;8.10;99.90
37240;DHT22;23130;48.760;9.178;2023-12-22T10:48:56;8.10;99.90
37240;DHT22;23130;48.760;9.178;2023-12-22T10:51:21;8.00;99.90
37240;DHT22;23130;48.760;9.178;2023-12-22T10:53:46;8.00;99.90
37240;DHT22;23130;48.760;9.178;2023-12-22T10:56:12;8.00;99.90
37240;DHT22;23130;48.760;9.178;2023-12-22T10:58:37;8.00;99.90
37240;DHT22;23130;48.760;9.178;2023-12-22T11:01:05;7.90;99.90
37240;DHT22;23130;48.760;9.178;2023-12-22T11:03:31;8.00;99.90
37240;DHT22;23130;48.760;9.178;2023-12-22T11:05:57;7.90;99.90
37240;DHT22;23130;48.760;9.178;2023-12-22T11:08:24;7.90;99.90
37240;DHT22;23130;48.760;9.178;2023-12-22T11:10:53;7.90;99.90
37240;DHT22;23130;48.760;9.178;2023-12-22T11:13:21;7.90;99.90
37240;DHT22;23130;48.760;9.178;2023-12-22T11:15:47;7.90;99.90
37240;DHT22;23130;48.760;9.178;2023-12-22T11:18:13;7.80;99.90
37240;DHT22;23130;48.760;9.178;2023-12-22T11:20:40;7.70;99.90
37240;DHT22;23130;48.760;9.178;2023-12-22T11:23:06;7.70;99.90
37240;DHT22;23130;48.760;9.178;2023-12-22T11:25:33;7.60;99.90
37240;DHT22;23130;48.760;9.178;2023-12-22T11:28:00;7.60;99.90
37240;DHT22;23130;48.760;9.178;2023-12-22T11:30:25;7.60;99.90
37240;DHT22;23130;48.760;9.178;2023-12-22T11:32:53;7.50;99.90
37240;DHT22;23130;48.760;9.178;2023-12-22T11:35:21;7.50;99.90
37240;DHT22;23130;48.760;9.178;2023-12-22T11:37:49;7.50;99.90
37240;DHT22;23130;48.760;9.178;2023-12-22T11:40:14;7.40;99.90
37240;DHT22;23130;48.760;9.178;2023-12-22T11:42:41;7.30;99.90
37240;DHT22;23130;48.760;9.178;2023-12-22T11:45:11;7.20;99.90
37240;DHT22;23130;48.760;9.178;2023-12-22T11:47:38;7.20;99.90
37240;DHT22;23130;48.760;9.178;2023-12-22T11:50:08;7.20;99.90
37240;DHT22;23130;48.760;9.178;2023-12-22T11:52:34;7.20;99.90
37240;DHT22;23130;48.760;9.178;2023-12-22T11:55:00;7.10;99.90
37240;DHT22;23130;48.760;9.178;2023-12-22T11:57:29;7.00;99.90
37240;DHT22;23130;48.760;9.178;2023-12-22T11:59:55;7.00;99.90
37240;DHT22;23130;48.760;9.178;2023-12-22T12:02:21;7.00;99.90
37240;DHT22;23130;48.760;9.178;2023-12-22T12:04:50;7.00;99.90
37240;DHT22;23130;48.760;9.178;2023-12-22T12:10:03;7.00;99.90
37240;DHT22;23130;48.760;9.178;2023-12-22T12:12:29;7.00;99.90
37240;DHT22;23130;48.760;9.178;2023-12-22T12:14:57;7.00;99.90
37240;DHT22;23130;48.760;9.178;2023-12-22T12:17:23;7.00;99.90
37240;DHT22;23130;48.760;9.178;2023-12-22T12:19:49;7.00;99.90
37240;DHT22;23130;48.760;9.178;2023-12-22T12:22:15;7.00;99.90
37240;DHT22;23130;48.760;9.178;2023-12-22T12:24:41;7.10;99.90
37240;DHT22;23130;48.760;9.178;2023-12-22T12:27:07;7.10;99.90
37240;DHT22;23130;48.760;9.178;2023-12-22T12:29:34;7.00;99.90
37240;DHT22;23130;48.760;9.178;2023-12-22T12:32:03;7.00;99.90
37240;DHT22;23130;48.760;9.178;2023-12-22T12:34:31;7.00;99.90
37240;DHT22;23130;48.760;9.178;2023-12-22T12:36:56;7.00;99.90
37240;DHT22;23130;48.760;9.178;2023-12-22T12:39:22;7.00;99.90
37240;DHT22;23130;48.760;9.178;2023-12-22T12:41:53;7.00;99.90
37240;DHT22;23130;48.760;9.178;2023-12-22T12:44:18;7.00;99.90
37240;DHT22;23130;48.760;9.178;2023-12-22T12:46:45;7.00;99.90
37240;DHT22;23130;48.760;9.178;2023-12-22T12:49:11;7.10;99.90
37240;DHT22;23130;48.760;9.178;2023-12-22T12:51:37;7.00;99.90
37240;DHT22;23130;48.760;9.178;2023-12-22T12:54:06;7.10;99.90
37240;DHT22;23130;48.760;9.178;2023-12-22T12:56:38;7.00;99.90
37240;DHT22;23130;48.760;9.178;2023-12-22T12:59:11;7.00;99.90
37240;DHT22;23130;48.760;9.178;2023-12-22T13:01:52;7.10;99.90
37240;DHT22;23130;48.760;9.178;2023-12-22T13:04:18;7.10;99.90
37240;DHT22;23130;48.760;9.178;2023-12-22T13:09:09;7.10;99.90
37240;DHT22;23130;48.760;9.178;2023-12-22T13:11:35;7.10;99.90
37240;DHT22;23130;48.760;9.178;2023-12-22T13:14:01;7.20;99.90
37240;DHT22;23130;48.760;9.178;2023-12-22T13:16:27;7.10;99.90
37240;DHT22;23130;48.760;9.178;2023-12-22T13:18:56;7.20;99.90
37240;DHT22;23130;48.760;9.178;2023-12-22T13:21:22;7.20;99.90
37240;DHT22;23130;48.760;9.178;2023-12-22T13:23:48;7.20;99.90
37240;DHT22;23130;48.760;9.178;2023-12-22T13:26:19;7.30;99.90
37240;DHT22;23130;48.760;9.178;2023-12-22T13:28:45;7.50;99.90
37240;DHT22;23130;48.760;9.178;2023-12-22T13:31:12;7.50;99.90
37240;DHT22;23130;48.760;9.178;2023-12-22T13:33:40;7.60;99.90
37240;DHT22;23130;48.760;9.178;2023-12-22T13:36:06;7.80;99.90
37240;DHT22;23130;48.760;9.178;2023-12-22T13:38:32;7.90;99.90
37240;DHT22;23130;48.760;9.178;2023-12-22T13:40:57;8.00;99.90
37240;DHT22;23130;48.760;9.178;2023-12-22T13:43:27;8.10;99.90
37240;DHT22;23130;48.760;9.178;2023-12-22T13:45:52;8.20;99.90
37240;DHT22;23130;48.760;9.178;2023-12-22T13:48:19;8.30;99.90
37240;DHT22;23130;48.760;9.178;2023-12-22T13:50:59;8.40;99.90
37240;DHT22;23130;48.760;9.178;2023-12-22T13:53:26;8.40;99.90
37240;DHT22;23130;48.760;9.178;2023-12-22T13:56:00;8.40;99.90
37240;DHT22;23130;48.760;9.178;2023-12-22T13:58:26;8.50;99.90
37240;DHT22;23130;48.760;9.178;2023-12-22T14:00:51;8.50;99.90
37240;DHT22;23130;48.760;9.178;2023-12-22T14:03:18;8.50;99.90
37240;DHT22;23130;48.760;9.178;2023-12-22T14:05:47;8.60;99.90
37240;DHT22;23130;48.760;9.178;2023-12-22T14:08:14;8.60;99.90
37240;DHT22;23130;48.760;9.178;2023-12-22T14:10:46;8.60;99.90
37240;DHT22;23130;48.760;9.178;2023-12-22T14:13:13;8.70;99.90
37240;DHT22;23130;48.760;9.178;2023-12-22T14:15:38;8.80;99.90
37240;DHT22;23130;48.760;9.178;2023-12-22T14:18:05;8.80;99.90
37240;DHT22;23130;48.760;9.178;2023-12-22T14:20:30;8.80;99.90
37240;DHT22;23130;48.760;9.178;2023-12-22T14:22:56;8.80;99.90
37240;DHT22;23130;48.760;9.178;2023-12-22T14:25:21;8.80;99.90
37240;DHT22;23130;48.760;9.178;2023-12-22T14:27:47;8.80;99.90
37240;DHT22;23130;48.760;9.178;2023-12-22T14:30:12;8.80;99.90
37240;DHT22;23130;48.760;9.178;2023-12-22T14:32:38;8.90;99.90
37240;DHT22;23130;48.760;9.178;2023-12-22T14:35:04;8.90;99.90
37240;DHT22;23130;48.760;9.178;2023-12-22T14:37:29;9.00;99.90
37240;DHT22;23130;48.760;9.178;2023-12-22T14:39:55;8.90;99.90
37240;DHT22;23130;48.760;9.178;2023-12-22T14:42:21;8.90;99.90
37240;DHT22;23130;48.760;9.178;2023-12-22T14:44:48;8.90;99.90
37240;DHT22;23130;48.760;9.178;2023-12-22T14:47:13;9.00;99.90
37240;DHT22;23130;48.760;9.178;2023-12-22T14:49:39;9.00;99.90
37240;DHT22;23130;48.760;9.178;2023-12-22T14:52:04;9.00;99.90
37240;DHT22;23130;48.760;9.178;2023-12-22T14:54:29;9.10;99.90
37240;DHT22;23130;48.760;9.178;2023-12-22T14:56:55;9.10;99.90
37240;DHT22;23130;48.760;9.178;2023-12-22T14:59:20;9.20;99.90
37240;DHT22;23130;48.760;9.178;2023-12-22T15:01:46;9.20;99.90
37240;DHT22;23130;48.760;9.178;2023-12-22T15:04:11;9.20;99.90
37240;DHT22;23130;48.760;9.178;2023-12-22T15:06:40;9.10;99.90
37240;DHT22;23130;48.760;9.178;2023-12-22T15:09:08;9.10;99.90
37240;DHT22;23130;48.760;9.178;2023-12-22T15:11:40;9.10;99.90
37240;DHT22;23130;48.760;9.178;2023-12-22T15:14:05;9.10;99.90
37240;DHT22;23130;48.760;9.178;2023-12-22T15:16:31;9.10;99.90
37240;DHT22;23130;48.760;9.178;2023-12-22T15:18:56;9.10;99.90
37240;DHT22;23130;48.760;9.178;2023-12-22T15:21:22;9.10;99.90
37240;DHT22;23130;48.760;9.178;2023-12-22T15:23:49;9.20;99.90
37240;DHT22;23130;48.760;9.178;2023-12-22T15:26:23;9.20;99.90
37240;DHT22;23130;48.760;9.178;2023-12-22T15:28:59;9.20;99.90
37240;DHT22;23130;48.760;9.178;2023-12-22T15:31:26;9.10;99.90
37240;DHT22;23130;48.760;9.178;2023-12-22T15:33:54;9.10;99.90
37240;DHT22;23130;48.760;9.178;2023-12-22T15:36:20;9.20;99.90
37240;DHT22;23130;48.760;9.178;2023-12-22T15:38:47;9.30;99.90
37240;DHT22;23130;48.760;9.178;2023-12-22T15:41:13;9.30;99.90
37240;DHT22;23130;48.760;9.178;2023-12-22T15:43:39;9.40;99.90
37240;DHT22;23130;48.760;9.178;2023-12-22T15:46:05;9.30;99.90
37240;DHT22;23130;48.760;9.178;2023-12-22T15:48:32;9.30;99.90
37240;DHT22;23130;48.760;9.178;2023-12-22T15:50:57;9.20;99.90
37240;DHT22;23130;48.760;9.178;2023-12-22T15:53:23;9.30;99.90
37240;DHT22;23130;48.760;9.178;2023-12-22T15:55:48;9.30;99.90
37240;DHT22;23130;48.760;9.178;2023-12-22T15:58:13;9.30;99.90
37240;DHT22;23130;48.760;9.178;2023-12-22T16:00:40;9.30;99.90
37240;DHT22;23130;48.760;9.178;2023-12-22T16:03:05;9.30;99.90
37240;DHT22;23130;48.760;9.178;2023-12-22T16:05:30;9.30;99.90
37240;DHT22;23130;48.760;9.178;2023-12-22T16:07:56;9.40;99.90
37240;DHT22;23130;48.760;9.178;2023-12-22T16:10:27;9.30;99.90
37240;DHT22;23130;48.760;9.178;2023-12-22T16:12:52;9.40;99.90
37240;DHT22;23130;48.760;9.178;2023-12-22T16:15:18;9.40;99.90
37240;DHT22;23130;48.760;9.178;2023-12-22T16:17:45;9.40;99.90
37240;DHT22;23130;48.760;9.178;2023-12-22T16:20:11;9.40;99.90
37240;DHT22;23130;48.760;9.178;2023-12-22T16:22:37;9.50;99.90
37240;DHT22;23130;48.760;9.178;2023-12-22T16:25:02;9.40;99.90
37240;DHT22;23130;48.760;9.178;2023-12-22T16:27:28;9.40;99.90
37240;DHT22;23130;48.760;9.178;2023-12-22T16:29:54;9.30;99.90
37240;DHT22;23130;48.760;9.178;2023-12-22T16:32:20;9.40;99.90
37240;DHT22;23130;48.760;9.178;2023-12-22T16:34:46;9.30;99.90
37240;DHT22;23130;48.760;9.178;2023-12-22T16:37:12;9.30;99.90
37240;DHT22;23130;48.760;9.178;2023-12-22T16:39:47;9.30;99.90
37240;DHT22;23130;48.760;9.178;2023-12-22T16:42:14;9.40;99.90
37240;DHT22;23130;48.760;9.178;2023-12-22T16:44:40;9.50;99.90
37240;DHT22;23130;48.760;9.178;2023-12-22T16:47:06;9.40;99.90
37240;DHT22;23130;48.760;9.178;2023-12-22T16:49:31;9.40;99.90
37240;DHT22;23130;48.760;9.178;2023-12-22T16:51:57;9.40;99.90
37240;DHT22;23130;48.760;9.178;2023-12-22T16:54:23;9.40;99.90
37240;DHT22;23130;48.760;9.178;2023-12-22T16:56:48;9.40;99.90
37240;DHT22;23130;48.760;9.178;2023-12-22T16:59:14;9.30;99.90
37240;DHT22;23130;48.760;9.178;2023-12-22T17:01:39;9.40;99.90
37240;DHT22;23130;48.760;9.178;2023-12-22T17:04:05;9.30;99.90
37240;DHT22;23130;48.760;9.178;2023-12-22T17:06:30;9.40;99.90
37240;DHT22;23130;48.760;9.178;2023-12-22T17:08:55;9.50;99.90
37240;DHT22;23130;48.760;9.178;2023-12-22T17:11:21;9.40;99.90
37240;DHT22;23130;48.760;9.178;2023-12-22T17:13:46;9.40;99.90
37240;DHT22;23130;48.760;9.178;2023-12-22T17:16:12;9.40;99.90
37240;DHT22;23130;48.760;9.178;2023-12-22T17:18:39;9.40;99.90
37240;DHT22;23130;48.760;9.178;2023-12-22T17:21:05;9.40;99.90
37240;DHT22;23130;48.760;9.178;2023-12-22T17:23:33;9.40;99.90
37240;DHT22;23130;48.760;9.178;2023-12-22T17:26:00;9.40;99.90
37240;DHT22;23130;48.760;9.178;2023-12-22T17:28:26;9.40;99.90
37240;DHT22;23130;48.760;9.178;2023-12-22T17:30:51;9.40;99.90
37240;DHT22;23130;48.760;9.178;2023-12-22T17:33:17;9.30;99.90
37240;DHT22;23130;48.760;9.178;2023-12-22T17:35:42;9.30;99.90
37240;DHT22;23130;48.760;9.178;2023-12-22T17:38:10;9.40;99.90
37240;DHT22;23130;48.760;9.178;2023-12-22T17:40:36;9.40;99.90
37240;DHT22;23130;48.760;9.178;2023-12-22T17:43:02;9.40;99.90
37240;DHT22;23130;48.760;9.178;2023-12-22T17:45:30;9.40;99.90
37240;DHT22;23130;48.760;9.178;2023-12-22T17:47:55;9.40;99.90
37240;DHT22;23130;48.760;9.178;2023-12-22T17:50:22;9.40;99.90
37240;DHT22;23130;48.760;9.178;2023-12-22T17:52:47;9.50;99.90
37240;DHT22;23130;48.760;9.178;2023-12-22T17:55:13;9.40;99.90
37240;DHT22;23130;48.760;9.178;2023-12-22T17:57:39;9.50;99.90
37240;DHT22;23130;48.760;9.178;2023-12-22T18:00:04;9.50;99.90
37240;DHT22;23130;48.760;9.178;2023-12-22T18:02:30;9.50;99.90
37240;DHT22;23130;48.760;9.178;2023-12-22T18:04:57;9.40;99.90
37240;DHT22;23130;48.760;9.178;2023-12-22T18:07:22;9.40;99.90
37240;DHT22;23130;48.760;9.178;2023-12-22T18:09:48;9.40;99.90
37240;DHT22;23130;48.760;9.178;2023-12-22T18:12:13;9.40;99.90
37240;DHT22;23130;48.760;9.178;2023-12-22T18:14:38;9.40;99.90
37240;DHT22;23130;48.760;9.178;2023-12-22T18:17:04;9.40;99.90
37240;DHT22;23130;48.760;9.178;2023-12-22T18:19:29;9.50;99.90
37240;DHT22;23130;48.760;9.178;2023-12-22T18:21:56;9.50;99.90
37240;DHT22;23130;48.760;9.178;2023-12-22T18:24:22;9.50;99.90
37240;DHT22;23130;48.760;9.178;2023-12-22T18:26:48;9.50;99.90
37240;DHT22;23130;48.760;9.178;2023-12-22T18:29:13;9.50;99.90
37240;DHT22;23130;48.760;9.178;2023-12-22T18:31:38;9.50;99.90
37240;DHT22;23130;48.760;9.178;2023-12-22T18:34:05;9.40;99.90
37240;DHT22;23130;48.760;9.178;2023-12-22T18:36:31;9.40;99.90
37240;DHT22;23130;48.760;9.178;2023-12-22T18:38:56;9.40;99.90
37240;DHT22;23130;48.760;9.178;2023-12-22T18:41:24;9.30;99.90
37240;DHT22;23130;48.760;9.178;2023-12-22T18:43:50;9.40;99.90
37240;DHT22;23130;48.760;9.178;2023-12-22T18:46:15;9.30;99.90
37240;DHT22;23130;48.760;9.178;2023-12-22T18:48:41;9.30;99.90
37240;DHT22;23130;48.760;9.178;2023-12-22T18:51:06;9.30;99.90
37240;DHT22;23130;48.760;9.178;2023-12-22T18:53:36;9.30;99.90
37240;DHT22;23130;48.760;9.178;2023-12-22T18:56:01;9.30;99.90
37240;DHT22;23130;48.760;9.178;2023-12-22T18:58:27;9.30;99.90
37240;DHT22;23130;48.760;9.178;2023-12-22T19:00:54;9.30;99.90
37240;DHT22;23130;48.760;9.178;2023-12-22T19:03:19;9.30;99.90
37240;DHT22;23130;48.760;9.178;2023-12-22T19:05:45;9.30;99.90
37240;DHT22;23130;48.760;9.178;2023-12-22T19:08:11;9.30;99.90
37240;DHT22;23130;48.760;9.178;2023-12-22T19:10:36;9.30;99.90
37240;DHT22;23130;48.760;9.178;2023-12-22T19:13:02;9.30;99.90
37240;DHT22;23130;48.760;9.178;2023-12-22T19:15:27;9.30;99.90
37240;DHT22;23130;48.760;9.178;2023-12-22T19:17:53;9.30;99.90
37240;DHT22;23130;48.760;9.178;2023-12-22T19:20:21;9.30;99.90
37240;DHT22;23130;48.760;9.178;2023-12-22T19:22:46;9.30;99.90
37240;DHT22;23130;48.760;9.178;2023-12-22T19:25:12;9.30;99.90
37240;DHT22;23130;48.760;9.178;2023-12-22T19:27:37;9.30;99.90
37240;DHT22;23130;48.760;9.178;2023-12-22T19:30:03;9.20;99.90
37240;DHT22;23130;48.760;9.178;2023-12-22T19:32:29;9.20;99.90
37240;DHT22;23130;48.760;9.178;2023-12-22T19:34:55;9.20;99.90
37240;DHT22;23130;48.760;9.178;2023-12-22T19:37:20;9.20;99.90
37240;DHT22;23130;48.760;9.178;2023-12-22T19:39:46;9.20;99.90
37240;DHT22;23130;48.760;9.178;2023-12-22T19:42:11;9.20;99.90
37240;DHT22;23130;48.760;9.178;2023-12-22T19:44:38;9.10;99.90
37240;DHT22;23130;48.760;9.178;2023-12-22T19:47:03;9.10;99.90
37240;DHT22;23130;48.760;9.178;2023-12-22T19:49:29;9.10;99.90
37240;DHT22;23130;48.760;9.178;2023-12-22T19:51:54;9.10;99.90
37240;DHT22;23130;48.760;9.178;2023-12-22T19:54:20;9.10;99.90
37240;DHT22;23130;48.760;9.178;2023-12-22T19:56:45;9.10;99.90
37240;DHT22;23130;48.760;9.178;2023-12-22T19:59:10;9.10;99.90
37240;DHT22;23130;48.760;9.178;2023-12-22T20:01:36;9.10;99.90
37240;DHT22;23130;48.760;9.178;2023-12-22T20:04:02;9.10;99.90
37240;DHT22;23130;48.760;9.178;2023-12-22T20:06:28;9.10;99.90
37240;DHT22;23130;48.760;9.178;2023-12-22T20:08:56;9.10;99.90
37240;DHT22;23130;48.760;9.178;2023-12-22T20:11:21;9.20;99.90
37240;DHT22;23130;48.760;9.178;2023-12-22T20:13:51;9.20;99.90
37240;DHT22;23130;48.760;9.178;2023-12-22T20:16:17;9.10;99.90
37240;DHT22;23130;48.760;9.178;2023-12-22T20:18:43;9.10;99.90
37240;DHT22;23130;48.760;9.178;2023-12-22T20:21:09;9.10;99.90
37240;DHT22;23130;48.760;9.178;2023-12-22T20:23:36;9.10;99.90
37240;DHT22;23130;48.760;9.178;2023-12-22T20:26:03;9.10;99.90
37240;DHT22;23130;48.760;9.178;2023-12-22T20:28:28;9.10;99.90
37240;DHT22;23130;48.760;9.178;2023-12-22T20:30:54;9.10;99.90
37240;DHT22;23130;48.760;9.178;2023-12-22T20:33:19;9.10;99.90
37240;DHT22;23130;48.760;9.178;2023-12-22T20:35:44;9.20;99.90
37240;DHT22;23130;48.760;9.178;2023-12-22T20:38:10;9.10;99.90
37240;DHT22;23130;48.760;9.178;2023-12-22T20:40:35;9.10;99.90
37240;DHT22;23130;48.760;9.178;2023-12-22T20:43:01;9.10;99.90
37240;DHT22;23130;48.760;9.178;2023-12-22T20:45:28;9.10;99.90
37240;DHT22;23130;48.760;9.178;2023-12-22T20:47:53;9.00;99.90
37240;DHT22;23130;48.760;9.178;2023-12-22T20:50:19;8.90;99.90
37240;DHT22;23130;48.760;9.178;2023-12-22T20:52:45;8.90;99.90
37240;DHT22;23130;48.760;9.178;2023-12-22T20:55:15;8.90;99.90
37240;DHT22;23130;48.760;9.178;2023-12-22T20:57:41;8.90;99.90
37240;DHT22;23130;48.760;9.178;2023-12-22T21:00:06;8.90;99.90
37240;DHT22;23130;48.760;9.178;2023-12-22T21:02:33;8.90;99.90
37240;DHT22;23130;48.760;9.178;2023-12-22T21:05:00;8.90;99.90
37240;DHT22;23130;48.760;9.178;2023-12-22T21:07:25;8.90;99.90
37240;DHT22;23130;48.760;9.178;2023-12-22T21:09:52;8.90;99.90
37240;DHT22;23130;48.760;9.178;2023-12-22T21:12:17;8.90;99.90
37240;DHT22;23130;48.760;9.178;2023-12-22T21:14:43;9.00;99.90
37240;DHT22;23130;48.760;9.178;2023-12-22T21:17:09;8.90;99.90
37240;DHT22;23130;48.760;9.178;2023-12-22T21:19:34;8.90;99.90
37240;DHT22;23130;48.760;9.178;2023-12-22T21:22:00;8.90;99.90
37240;DHT22;23130;48.760;9.178;2023-12-22T21:24:25;8.90;99.90
37240;DHT22;23130;48.760;9.178;2023-12-22T21:26:51;8.90;99.90
37240;DHT22;23130;48.760;9.178;2023-12-22T21:29:17;9.00;99.90
37240;DHT22;23130;48.760;9.178;2023-12-22T21:31:42;9.00;99.90
37240;DHT22;23130;48.760;9.178;2023-12-22T21:34:08;8.90;99.90
37240;DHT22;23130;48.760;9.178;2023-12-22T21:36:34;8.90;99.90
37240;DHT22;23130;48.760;9.178;2023-12-22T21:38:59;8.90;99.90
37240;DHT22;23130;48.760;9.178;2023-12-22T21:41:25;8.90;99.90
37240;DHT22;23130;48.760;9.178;2023-12-22T21:43:50;8.90;99.90
37240;DHT22;23130;48.760;9.178;2023-12-22T21:46:17;9.00;99.90
37240;DHT22;23130;48.760;9.178;2023-12-22T21:48:42;9.00;99.90
37240;DHT22;23130;48.760;9.178;2023-12-22T21:51:08;9.00;99.90
37240;DHT22;23130;48.760;9.178;2023-12-22T21:53:34;9.00;99.90
37240;DHT22;23130;48.760;9.178;2023-12-22T21:56:00;9.00;99.90
37240;DHT22;23130;48.760;9.178;2023-12-22T21:58:25;9.00;99.90
37240;DHT22;23130;48.760;9.178;2023-12-22T22:00:51;8.90;99.90
37240;DHT22;23130;48.760;9.178;2023-12-22T22:03:20;8.90;99.90
37240;DHT22;23130;48.760;9.178;2023-12-22T22:05:46;8.90;99.90
37240;DHT22;23130;48.760;9.178;2023-12-22T22:08:12;8.90;99.90
37240;DHT22;23130;48.760;9.178;2023-12-22T22:10:37;8.90;99.90
37240;DHT22;23130;48.760;9.178;2023-12-22T22:13:03;8.90;99.90
37240;DHT22;23130;48.760;9.178;2023-12-22T22:15:28;8.90;99.90
37240;DHT22;23130;48.760;9.178;2023-12-22T22:17:54;8.90;99.90
37240;DHT22;23130;48.760;9.178;2023-12-22T22:20:19;8.90;99.90
37240;DHT22;23130;48.760;9.178;2023-12-22T22:22:44;8.90;99.90
37240;DHT22;23130;48.760;9.178;2023-12-22T22:25:10;8.80;99.90
37240;DHT22;23130;48.760;9.178;2023-12-22T22:27:36;8.80;99.90
37240;DHT22;23130;48.760;9.178;2023-12-22T22:30:02;8.80;99.90
37240;DHT22;23130;48.760;9.178;2023-12-22T22:32:28;8.80;99.90
37240;DHT22;23130;48.760;9.178;2023-12-22T22:34:53;8.90;99.90
37240;DHT22;23130;48.760;9.178;2023-12-22T22:37:20;8.90;99.90
37240;DHT22;23130;48.760;9.178;2023-12-22T22:39:46;8.90;99.90
37240;DHT22;23130;48.760;9.178;2023-12-22T22:42:11;8.80;99.90
37240;DHT22;23130;48.760;9.178;2023-12-22T22:44:37;8.90;99.90
37240;DHT22;23130;48.760;9.178;2023-12-22T22:47:03;8.90;99.90
37240;DHT22;23130;48.760;9.178;2023-12-22T22:49:28;8.90;99.90
37240;DHT22;23130;48.760;9.178;2023-12-22T22:51:54;9.00;99.90
37240;DHT22;23130;48.760;9.178;2023-12-22T22:54:19;8.80;99.90
37240;DHT22;23130;48.760;9.178;2023-12-22T22:56:45;8.80;99.90
37240;DHT22;23130;48.760;9.178;2023-12-22T22:59:10;8.80;99.90
37240;DHT22;23130;48.760;9.178;2023-12-22T23:01:36;8.80;99.90
37240;DHT22;23130;48.760;9.178;2023-12-22T23:04:01;8.80;99.90
37240;DHT22;23130;48.760;9.178;2023-12-22T23:06:28;8.80;99.90
37240;DHT22;23130;48.760;9.178;2023-12-22T23:08:54;8.80;99.90
37240;DHT22;23130;48.760;9.178;2023-12-22T23:11:21;8.80;99.90
37240;DHT22;23130;48.760;9.178;2023-12-22T23:13:48;8.80;99.90
37240;DHT22;23130;48.760;9.178;2023-12-22T23:16:13;8.80;99.90
37240;DHT22;23130;48.760;9.178;2023-12-22T23:18:39;8.70;99.90
37240;DHT22;23130;48.760;9.178;2023-12-22T23:21:05;8.70;99.90
37240;DHT22;23130;48.760;9.178;2023-12-22T23:23:30;8.70;99.90
37240;DHT22;23130;48.760;9.178;2023-12-22T23:25:56;8.70;99.90
37240;DHT22;23130;48.760;9.178;2023-12-22T23:28:21;8.70;99.90
37240;DHT22;23130;48.760;9.178;2023-12-22T23:30:47;8.70;99.90
37240;DHT22;23130;48.760;9.178;2023-12-22T23:33:13;8.70;99.90